sensor_id;sensor_type;location;lat;lon;timestamp;P1;durP1;ratioP1;P2;durP2;ratioP2
11761;SDS011;5938;47.098;15.474;2023-11-22T00:02:56;41.00;;;12.13;;
11761;SDS011;5938;47.098;15.474;2023-11-22T00:06:59;38.13;;;12.00;;
11761;SDS011;5938;47.098;15.474;2023-11-22T00:11:03;44.93;;;11.20;;
11761;SDS011;5938;47.098;15.474;2023-11-22T00:15:08;37.70;;;11.03;;
11761;SDS011;5938;47.098;15.474;2023-11-22T00:19:13;37.23;;;10.93;;
11761;SDS011;5938;47.098;15.474;2023-11-22T00:23:19;35.10;;;9.50;;
11761;SDS011;5938;47.098;15.474;2023-11-22T00:27:23;34.47;;;8.50;;
11761;SDS011;5938;47.098;15.474;2023-11-22T00:31:27;38.53;;;9.47;;
11761;SDS011;5938;47.098;15.474;2023-11-22T00:35:31;34.30;;;8.40;;
11761;SDS011;5938;47.098;15.474;2023-11-22T00:39:35;34.10;;;8.93;;
11761;SDS011;5938;47.098;15.474;2023-11-22T00:43:38;35.93;;;9.17;;
11761;SDS011;5938;47.098;15.474;2023-11-22T00:47:43;32.70;;;8.40;;
11761;SDS011;5938;47.098;15.474;2023-11-22T00:51:47;34.67;;;9.83;;
11761;SDS011;5938;47.098;15.474;2023-11-22T00:55:50;34.47;;;8.37;;
11761;SDS011;5938;47.098;15.474;2023-11-22T00:59:54;31.80;;;8.80;;
11761;SDS011;5938;47.098;15.474;2023-11-22T01:03:59;32.50;;;8.93;;
11761;SDS011;5938;47.098;15.474;2023-11-22T01:08:03;30.70;;;7.37;;
11761;SDS011;5938;47.098;15.474;2023-11-22T01:12:06;33.90;;;6.43;;
11761;SDS011;5938;47.098;15.474;2023-11-22T01:16:10;30.83;;;7.70;;
11761;SDS011;5938;47.098;15.474;2023-11-22T01:20:16;30.10;;;6.10;;
11761;SDS011;5938;47.098;15.474;2023-11-22T01:24:20;30.63;;;6.50;;
11761;SDS011;5938;47.098;15.474;2023-11-22T01:28:23;31.63;;;6.97;;
11761;SDS011;5938;47.098;15.474;2023-11-22T01:32:28;37.60;;;8.90;;
11761;SDS011;5938;47.098;15.474;2023-11-22T01:36:33;30.80;;;5.50;;
11761;SDS011;5938;47.098;15.474;2023-11-22T01:40:42;32.87;;;6.40;;
11761;SDS011;5938;47.098;15.474;2023-11-22T01:44:47;32.73;;;6.57;;
11761;SDS011;5938;47.098;15.474;2023-11-22T01:48:50;30.00;;;5.07;;
11761;SDS011;5938;47.098;15.474;2023-11-22T01:52:56;30.87;;;5.47;;
11761;SDS011;5938;47.098;15.474;2023-11-22T01:57:00;30.63;;;6.27;;
11761;SDS011;5938;47.098;15.474;2023-11-22T02:01:08;31.87;;;4.93;;
11761;SDS011;5938;47.098;15.474;2023-11-22T02:05:13;29.17;;;4.70;;
11761;SDS011;5938;47.098;15.474;2023-11-22T02:09:18;29.47;;;4.87;;
11761;SDS011;5938;47.098;15.474;2023-11-22T02:13:21;30.13;;;4.47;;
11761;SDS011;5938;47.098;15.474;2023-11-22T02:17:25;31.10;;;5.10;;
11761;SDS011;5938;47.098;15.474;2023-11-22T02:21:30;31.97;;;4.80;;
11761;SDS011;5938;47.098;15.474;2023-11-22T02:25:35;29.53;;;4.63;;
11761;SDS011;5938;47.098;15.474;2023-11-22T02:29:38;29.33;;;4.70;;
11761;SDS011;5938;47.098;15.474;2023-11-22T02:33:42;28.80;;;4.70;;
11761;SDS011;5938;47.098;15.474;2023-11-22T02:37:45;31.43;;;4.63;;
11761;SDS011;5938;47.098;15.474;2023-11-22T02:41:51;28.47;;;3.70;;
11761;SDS011;5938;47.098;15.474;2023-11-22T02:45:54;29.17;;;3.97;;
11761;SDS011;5938;47.098;15.474;2023-11-22T02:49:58;29.60;;;4.60;;
11761;SDS011;5938;47.098;15.474;2023-11-22T02:54:02;29.77;;;4.43;;
11761;SDS011;5938;47.098;15.474;2023-11-22T02:58:07;28.33;;;4.23;;
11761;SDS011;5938;47.098;15.474;2023-11-22T03:02:10;28.30;;;4.13;;
11761;SDS011;5938;47.098;15.474;2023-11-22T03:06:14;27.60;;;4.17;;
11761;SDS011;5938;47.098;15.474;2023-11-22T03:10:18;26.93;;;3.40;;
11761;SDS011;5938;47.098;15.474;2023-11-22T03:14:23;29.30;;;3.63;;
11761;SDS011;5938;47.098;15.474;2023-11-22T03:18:26;29.77;;;3.97;;
11761;SDS011;5938;47.098;15.474;2023-11-22T03:22:30;29.07;;;4.43;;
11761;SDS011;5938;47.098;15.474;2023-11-22T03:26:35;29.23;;;3.60;;
11761;SDS011;5938;47.098;15.474;2023-11-22T03:30:39;27.60;;;3.20;;
11761;SDS011;5938;47.098;15.474;2023-11-22T03:34:43;27.13;;;3.23;;
11761;SDS011;5938;47.098;15.474;2023-11-22T03:38:46;28.50;;;3.80;;
11761;SDS011;5938;47.098;15.474;2023-11-22T03:42:50;29.07;;;3.80;;
11761;SDS011;5938;47.098;15.474;2023-11-22T03:46:55;27.33;;;3.20;;
11761;SDS011;5938;47.098;15.474;2023-11-22T03:50:59;27.30;;;3.00;;
11761;SDS011;5938;47.098;15.474;2023-11-22T03:55:04;28.50;;;3.47;;
11761;SDS011;5938;47.098;15.474;2023-11-22T03:59:08;27.90;;;3.97;;
11761;SDS011;5938;47.098;15.474;2023-11-22T04:03:12;28.67;;;4.00;;
11761;SDS011;5938;47.098;15.474;2023-11-22T04:07:16;26.70;;;3.30;;
11761;SDS011;5938;47.098;15.474;2023-11-22T04:11:20;29.10;;;3.40;;
11761;SDS011;5938;47.098;15.474;2023-11-22T04:15:24;27.87;;;2.73;;
11761;SDS011;5938;47.098;15.474;2023-11-22T04:19:30;28.00;;;2.87;;
11761;SDS011;5938;47.098;15.474;2023-11-22T04:23:33;29.50;;;3.80;;
11761;SDS011;5938;47.098;15.474;2023-11-22T04:27:38;27.50;;;3.53;;
11761;SDS011;5938;47.098;15.474;2023-11-22T04:31:41;27.70;;;3.30;;
11761;SDS011;5938;47.098;15.474;2023-11-22T04:35:46;27.93;;;2.93;;
11761;SDS011;5938;47.098;15.474;2023-11-22T04:39:50;28.70;;;3.43;;
11761;SDS011;5938;47.098;15.474;2023-11-22T04:43:53;28.60;;;3.70;;
11761;SDS011;5938;47.098;15.474;2023-11-22T04:47:57;28.07;;;3.03;;
11761;SDS011;5938;47.098;15.474;2023-11-22T04:52:02;30.87;;;3.40;;
11761;SDS011;5938;47.098;15.474;2023-11-22T04:56:06;27.10;;;3.10;;
11761;SDS011;5938;47.098;15.474;2023-11-22T05:00:10;26.70;;;3.10;;
11761;SDS011;5938;47.098;15.474;2023-11-22T05:04:14;27.83;;;3.70;;
11761;SDS011;5938;47.098;15.474;2023-11-22T05:08:19;32.20;;;6.67;;
11761;SDS011;5938;47.098;15.474;2023-11-22T05:12:22;32.67;;;5.63;;
11761;SDS011;5938;47.098;15.474;2023-11-22T05:16:25;27.53;;;4.00;;
11761;SDS011;5938;47.098;15.474;2023-11-22T05:20:29;28.70;;;3.93;;
11761;SDS011;5938;47.098;15.474;2023-11-22T05:24:35;28.90;;;3.90;;
11761;SDS011;5938;47.098;15.474;2023-11-22T05:28:42;28.57;;;4.27;;
11761;SDS011;5938;47.098;15.474;2023-11-22T05:32:45;28.53;;;4.23;;
11761;SDS011;5938;47.098;15.474;2023-11-22T05:36:49;26.90;;;3.40;;
11761;SDS011;5938;47.098;15.474;2023-11-22T05:40:53;27.77;;;3.30;;
11761;SDS011;5938;47.098;15.474;2023-11-22T05:44:57;28.50;;;3.67;;
11761;SDS011;5938;47.098;15.474;2023-11-22T05:49:00;27.50;;;2.97;;
11761;SDS011;5938;47.098;15.474;2023-11-22T05:53:04;31.77;;;5.50;;
11761;SDS011;5938;47.098;15.474;2023-11-22T05:57:08;32.20;;;6.17;;
11761;SDS011;5938;47.098;15.474;2023-11-22T06:01:12;31.13;;;5.67;;
11761;SDS011;5938;47.098;15.474;2023-11-22T06:05:15;33.20;;;6.47;;
11761;SDS011;5938;47.098;15.474;2023-11-22T06:09:19;32.90;;;6.83;;
11761;SDS011;5938;47.098;15.474;2023-11-22T06:13:26;32.37;;;7.40;;
11761;SDS011;5938;47.098;15.474;2023-11-22T06:17:30;32.83;;;6.20;;
11761;SDS011;5938;47.098;15.474;2023-11-22T06:21:34;34.70;;;6.37;;
11761;SDS011;5938;47.098;15.474;2023-11-22T06:25:39;32.70;;;6.50;;
11761;SDS011;5938;47.098;15.474;2023-11-22T06:29:45;32.10;;;6.43;;
11761;SDS011;5938;47.098;15.474;2023-11-22T06:33:49;36.80;;;7.80;;
11761;SDS011;5938;47.098;15.474;2023-11-22T06:37:53;35.23;;;8.00;;
11761;SDS011;5938;47.098;15.474;2023-11-22T06:41:57;31.10;;;5.83;;
11761;SDS011;5938;47.098;15.474;2023-11-22T06:46:02;29.60;;;5.07;;
11761;SDS011;5938;47.098;15.474;2023-11-22T06:50:07;30.00;;;5.80;;
11761;SDS011;5938;47.098;15.474;2023-11-22T06:54:12;34.80;;;4.87;;
11761;SDS011;5938;47.098;15.474;2023-11-22T06:58:15;31.00;;;5.70;;
11761;SDS011;5938;47.098;15.474;2023-11-22T07:02:21;28.77;;;5.20;;
11761;SDS011;5938;47.098;15.474;2023-11-22T07:06:24;28.90;;;4.80;;
11761;SDS011;5938;47.098;15.474;2023-11-22T07:10:27;29.30;;;5.40;;
11761;SDS011;5938;47.098;15.474;2023-11-22T07:14:35;31.17;;;6.23;;
11761;SDS011;5938;47.098;15.474;2023-11-22T07:18:40;32.07;;;6.67;;
11761;SDS011;5938;47.098;15.474;2023-11-22T07:22:43;32.70;;;7.30;;
11761;SDS011;5938;47.098;15.474;2023-11-22T07:26:47;32.70;;;8.10;;
11761;SDS011;5938;47.098;15.474;2023-11-22T07:30:50;35.43;;;6.50;;
11761;SDS011;5938;47.098;15.474;2023-11-22T07:34:55;29.97;;;6.43;;
11761;SDS011;5938;47.098;15.474;2023-11-22T07:38:59;30.33;;;6.00;;
11761;SDS011;5938;47.098;15.474;2023-11-22T07:43:04;34.63;;;7.07;;
11761;SDS011;5938;47.098;15.474;2023-11-22T07:47:08;31.93;;;6.90;;
11761;SDS011;5938;47.098;15.474;2023-11-22T07:51:14;29.43;;;6.37;;
11761;SDS011;5938;47.098;15.474;2023-11-22T07:55:19;30.20;;;6.67;;
11761;SDS011;5938;47.098;15.474;2023-11-22T07:59:22;30.03;;;6.37;;
11761;SDS011;5938;47.098;15.474;2023-11-22T08:03:27;30.03;;;6.10;;
11761;SDS011;5938;47.098;15.474;2023-11-22T08:07:32;31.97;;;8.40;;
11761;SDS011;5938;47.098;15.474;2023-11-22T08:11:36;30.70;;;7.10;;
11761;SDS011;5938;47.098;15.474;2023-11-22T08:15:40;30.70;;;6.10;;
11761;SDS011;5938;47.098;15.474;2023-11-22T08:19:43;28.50;;;6.17;;
11761;SDS011;5938;47.098;15.474;2023-11-22T08:23:51;28.77;;;5.30;;
11761;SDS011;5938;47.098;15.474;2023-11-22T08:27:54;27.57;;;5.10;;
11761;SDS011;5938;47.098;15.474;2023-11-22T08:31:58;26.97;;;4.87;;
11761;SDS011;5938;47.098;15.474;2023-11-22T08:36:02;29.10;;;5.00;;
11761;SDS011;5938;47.098;15.474;2023-11-22T08:40:09;28.00;;;5.60;;
11761;SDS011;5938;47.098;15.474;2023-11-22T08:44:16;27.60;;;4.97;;
11761;SDS011;5938;47.098;15.474;2023-11-22T08:48:22;30.40;;;6.13;;
11761;SDS011;5938;47.098;15.474;2023-11-22T08:52:25;30.10;;;6.27;;
11761;SDS011;5938;47.098;15.474;2023-11-22T08:56:30;29.93;;;5.87;;
11761;SDS011;5938;47.098;15.474;2023-11-22T09:00:33;28.73;;;7.07;;
11761;SDS011;5938;47.098;15.474;2023-11-22T09:04:38;33.10;;;7.77;;
11761;SDS011;5938;47.098;15.474;2023-11-22T09:08:43;30.40;;;7.40;;
11761;SDS011;5938;47.098;15.474;2023-11-22T09:12:49;32.20;;;7.20;;
11761;SDS011;5938;47.098;15.474;2023-11-22T09:16:53;28.67;;;6.40;;
11761;SDS011;5938;47.098;15.474;2023-11-22T09:20:56;31.30;;;7.70;;
11761;SDS011;5938;47.098;15.474;2023-11-22T09:25:00;33.80;;;8.40;;
11761;SDS011;5938;47.098;15.474;2023-11-22T09:29:06;33.30;;;9.90;;
11761;SDS011;5938;47.098;15.474;2023-11-22T09:33:09;33.93;;;10.30;;
11761;SDS011;5938;47.098;15.474;2023-11-22T09:37:16;33.47;;;9.70;;
11761;SDS011;5938;47.098;15.474;2023-11-22T09:41:19;31.93;;;12.47;;
11761;SDS011;5938;47.098;15.474;2023-11-22T09:45:25;38.00;;;16.10;;
11761;SDS011;5938;47.098;15.474;2023-11-22T09:49:28;37.47;;;16.20;;
11761;SDS011;5938;47.098;15.474;2023-11-22T09:53:36;38.40;;;17.50;;
11761;SDS011;5938;47.098;15.474;2023-11-22T09:57:46;39.67;;;15.67;;
11761;SDS011;5938;47.098;15.474;2023-11-22T10:01:53;32.93;;;14.80;;
11761;SDS011;5938;47.098;15.474;2023-11-22T10:05:57;33.43;;;9.90;;
11761;SDS011;5938;47.098;15.474;2023-11-22T10:10:01;31.30;;;9.10;;
11761;SDS011;5938;47.098;15.474;2023-11-22T10:14:06;29.80;;;8.20;;
11761;SDS011;5938;47.098;15.474;2023-11-22T10:18:11;27.90;;;7.90;;
11761;SDS011;5938;47.098;15.474;2023-11-22T10:22:15;26.60;;;8.40;;
11761;SDS011;5938;47.098;15.474;2023-11-22T10:26:20;26.40;;;7.60;;
11761;SDS011;5938;47.098;15.474;2023-11-22T10:30:24;27.87;;;8.33;;
11761;SDS011;5938;47.098;15.474;2023-11-22T10:34:31;25.43;;;7.40;;
11761;SDS011;5938;47.098;15.474;2023-11-22T10:38:35;24.53;;;6.80;;
11761;SDS011;5938;47.098;15.474;2023-11-22T10:43:04;26.73;;;6.97;;
11761;SDS011;5938;47.098;15.474;2023-11-22T10:47:47;24.00;;;6.17;;
11761;SDS011;5938;47.098;15.474;2023-11-22T10:57:52;22.60;;;6.03;;
11761;SDS011;5938;47.098;15.474;2023-11-22T11:02:01;19.70;;;6.73;;
11761;SDS011;5938;47.098;15.474;2023-11-22T11:06:10;23.40;;;10.10;;
11761;SDS011;5938;47.098;15.474;2023-11-22T11:10:17;21.10;;;12.90;;
11761;SDS011;5938;47.098;15.474;2023-11-22T11:14:27;46.03;;;42.87;;
11761;SDS011;5938;47.098;15.474;2023-11-22T11:18:31;63.27;;;59.70;;
11761;SDS011;5938;47.098;15.474;2023-11-22T11:22:36;21.53;;;19.23;;
11761;SDS011;5938;47.098;15.474;2023-11-22T11:26:39;18.33;;;10.70;;
11761;SDS011;5938;47.098;15.474;2023-11-22T11:30:45;17.03;;;9.10;;
11761;SDS011;5938;47.098;15.474;2023-11-22T11:34:50;17.83;;;8.43;;
11761;SDS011;5938;47.098;15.474;2023-11-22T11:38:53;18.80;;;9.93;;
11761;SDS011;5938;47.098;15.474;2023-11-22T11:42:58;19.13;;;7.10;;
11761;SDS011;5938;47.098;15.474;2023-11-22T11:47:10;22.70;;;5.90;;
11761;SDS011;5938;47.098;15.474;2023-11-22T11:51:14;20.20;;;5.73;;
11761;SDS011;5938;47.098;15.474;2023-11-22T11:55:18;19.70;;;5.30;;
11761;SDS011;5938;47.098;15.474;2023-11-22T11:59:22;21.90;;;5.80;;
11761;SDS011;5938;47.098;15.474;2023-11-22T12:03:26;21.63;;;5.10;;
11761;SDS011;5938;47.098;15.474;2023-11-22T12:07:30;21.03;;;5.23;;
11761;SDS011;5938;47.098;15.474;2023-11-22T12:11:34;21.17;;;6.70;;
11761;SDS011;5938;47.098;15.474;2023-11-22T12:15:39;19.70;;;5.90;;
11761;SDS011;5938;47.098;15.474;2023-11-22T12:19:45;18.80;;;6.87;;
11761;SDS011;5938;47.098;15.474;2023-11-22T12:23:50;19.50;;;7.70;;
11761;SDS011;5938;47.098;15.474;2023-11-22T12:27:54;16.30;;;6.87;;
11761;SDS011;5938;47.098;15.474;2023-11-22T12:31:58;14.67;;;5.70;;
11761;SDS011;5938;47.098;15.474;2023-11-22T12:36:03;13.53;;;4.97;;
11761;SDS011;5938;47.098;15.474;2023-11-22T12:40:11;14.47;;;5.77;;
11761;SDS011;5938;47.098;15.474;2023-11-22T12:44:19;13.73;;;5.60;;
11761;SDS011;5938;47.098;15.474;2023-11-22T12:48:23;14.73;;;5.47;;
11761;SDS011;5938;47.098;15.474;2023-11-22T12:52:30;13.00;;;4.60;;
11761;SDS011;5938;47.098;15.474;2023-11-22T12:56:34;13.83;;;4.73;;
11761;SDS011;5938;47.098;15.474;2023-11-22T13:00:38;14.27;;;4.43;;
11761;SDS011;5938;47.098;15.474;2023-11-22T13:04:41;12.97;;;3.57;;
11761;SDS011;5938;47.098;15.474;2023-11-22T13:08:46;14.90;;;3.80;;
11761;SDS011;5938;47.098;15.474;2023-11-22T13:12:50;14.60;;;3.97;;
11761;SDS011;5938;47.098;15.474;2023-11-22T13:16:54;15.47;;;4.57;;
11761;SDS011;5938;47.098;15.474;2023-11-22T13:20:57;23.93;;;9.37;;
11761;SDS011;5938;47.098;15.474;2023-11-22T13:25:02;18.07;;;5.03;;
11761;SDS011;5938;47.098;15.474;2023-11-22T13:29:07;25.63;;;7.10;;
11761;SDS011;5938;47.098;15.474;2023-11-22T13:33:11;19.70;;;4.40;;
11761;SDS011;5938;47.098;15.474;2023-11-22T13:37:14;17.90;;;3.27;;
11761;SDS011;5938;47.098;15.474;2023-11-22T13:41:19;20.50;;;2.37;;
11761;SDS011;5938;47.098;15.474;2023-11-22T13:45:23;17.40;;;2.03;;
11761;SDS011;5938;47.098;15.474;2023-11-22T13:49:27;19.57;;;2.43;;
11761;SDS011;5938;47.098;15.474;2023-11-22T13:53:30;17.80;;;2.17;;
11761;SDS011;5938;47.098;15.474;2023-11-22T13:57:37;20.70;;;2.37;;
11761;SDS011;5938;47.098;15.474;2023-11-22T14:01:41;22.33;;;4.00;;
11761;SDS011;5938;47.098;15.474;2023-11-22T14:05:46;19.00;;;2.60;;
11761;SDS011;5938;47.098;15.474;2023-11-22T14:09:49;20.80;;;2.63;;
11761;SDS011;5938;47.098;15.474;2023-11-22T14:13:54;23.13;;;3.03;;
11761;SDS011;5938;47.098;15.474;2023-11-22T14:17:57;19.40;;;2.67;;
11761;SDS011;5938;47.098;15.474;2023-11-22T14:22:01;24.00;;;2.80;;
11761;SDS011;5938;47.098;15.474;2023-11-22T14:26:05;18.97;;;2.27;;
11761;SDS011;5938;47.098;15.474;2023-11-22T14:30:10;21.47;;;4.03;;
11761;SDS011;5938;47.098;15.474;2023-11-22T14:34:16;20.00;;;3.07;;
11761;SDS011;5938;47.098;15.474;2023-11-22T14:38:19;23.27;;;3.13;;
11761;SDS011;5938;47.098;15.474;2023-11-22T14:42:24;20.43;;;2.30;;
11761;SDS011;5938;47.098;15.474;2023-11-22T14:46:30;21.37;;;2.67;;
11761;SDS011;5938;47.098;15.474;2023-11-22T14:50:34;21.43;;;3.30;;
11761;SDS011;5938;47.098;15.474;2023-11-22T14:54:37;22.30;;;2.63;;
11761;SDS011;5938;47.098;15.474;2023-11-22T14:58:41;21.30;;;2.57;;
11761;SDS011;5938;47.098;15.474;2023-11-22T15:02:46;20.90;;;2.17;;
11761;SDS011;5938;47.098;15.474;2023-11-22T15:06:55;22.30;;;3.10;;
11761;SDS011;5938;47.098;15.474;2023-11-22T15:10:58;21.43;;;2.93;;
11761;SDS011;5938;47.098;15.474;2023-11-22T15:15:02;22.70;;;3.30;;
11761;SDS011;5938;47.098;15.474;2023-11-22T15:19:07;21.63;;;2.40;;
11761;SDS011;5938;47.098;15.474;2023-11-22T15:23:11;23.60;;;3.70;;
11761;SDS011;5938;47.098;15.474;2023-11-22T15:27:17;22.40;;;3.10;;
11761;SDS011;5938;47.098;15.474;2023-11-22T15:31:20;24.70;;;4.20;;
11761;SDS011;5938;47.098;15.474;2023-11-22T15:35:26;26.70;;;4.37;;
11761;SDS011;5938;47.098;15.474;2023-11-22T15:39:29;24.47;;;4.07;;
11761;SDS011;5938;47.098;15.474;2023-11-22T15:43:33;25.27;;;4.20;;
11761;SDS011;5938;47.098;15.474;2023-11-22T15:47:36;25.70;;;4.47;;
11761;SDS011;5938;47.098;15.474;2023-11-22T15:51:44;26.37;;;4.27;;
11761;SDS011;5938;47.098;15.474;2023-11-22T15:55:47;26.57;;;4.03;;
11761;SDS011;5938;47.098;15.474;2023-11-22T15:59:51;25.73;;;4.13;;
11761;SDS011;5938;47.098;15.474;2023-11-22T16:03:54;26.27;;;4.20;;
11761;SDS011;5938;47.098;15.474;2023-11-22T16:07:59;26.67;;;4.43;;
11761;SDS011;5938;47.098;15.474;2023-11-22T16:12:03;29.20;;;5.93;;
11761;SDS011;5938;47.098;15.474;2023-11-22T16:16:07;31.33;;;5.93;;
11761;SDS011;5938;47.098;15.474;2023-11-22T16:20:11;28.50;;;6.20;;
11761;SDS011;5938;47.098;15.474;2023-11-22T16:24:17;27.80;;;5.37;;
11761;SDS011;5938;47.098;15.474;2023-11-22T16:28:20;27.20;;;4.80;;
11761;SDS011;5938;47.098;15.474;2023-11-22T16:32:24;27.27;;;3.90;;
11761;SDS011;5938;47.098;15.474;2023-11-22T16:36:28;27.73;;;4.30;;
11761;SDS011;5938;47.098;15.474;2023-11-22T16:40:33;26.17;;;3.50;;
11761;SDS011;5938;47.098;15.474;2023-11-22T16:44:37;27.23;;;3.77;;
11761;SDS011;5938;47.098;15.474;2023-11-22T16:48:44;27.80;;;4.10;;
11761;SDS011;5938;47.098;15.474;2023-11-22T16:52:48;26.60;;;4.33;;
11761;SDS011;5938;47.098;15.474;2023-11-22T16:56:53;26.37;;;4.03;;
11761;SDS011;5938;47.098;15.474;2023-11-22T17:00:58;28.23;;;3.30;;
11761;SDS011;5938;47.098;15.474;2023-11-22T17:05:02;28.10;;;5.17;;
11761;SDS011;5938;47.098;15.474;2023-11-22T17:09:05;26.97;;;4.10;;
11761;SDS011;5938;47.098;15.474;2023-11-22T17:13:11;34.80;;;6.10;;
11761;SDS011;5938;47.098;15.474;2023-11-22T17:17:16;26.60;;;4.20;;
11761;SDS011;5938;47.098;15.474;2023-11-22T17:21:21;28.37;;;4.37;;
11761;SDS011;5938;47.098;15.474;2023-11-22T17:25:24;27.90;;;4.40;;
11761;SDS011;5938;47.098;15.474;2023-11-22T17:29:32;26.80;;;3.00;;
11761;SDS011;5938;47.098;15.474;2023-11-22T17:33:36;26.37;;;3.60;;
11761;SDS011;5938;47.098;15.474;2023-11-22T17:37:41;27.50;;;3.83;;
11761;SDS011;5938;47.098;15.474;2023-11-22T17:41:45;27.97;;;4.33;;
11761;SDS011;5938;47.098;15.474;2023-11-22T17:45:49;27.57;;;4.40;;
11761;SDS011;5938;47.098;15.474;2023-11-22T17:49:53;29.83;;;4.67;;
11761;SDS011;5938;47.098;15.474;2023-11-22T17:54:00;28.87;;;5.27;;
11761;SDS011;5938;47.098;15.474;2023-11-22T17:58:03;29.67;;;5.17;;
11761;SDS011;5938;47.098;15.474;2023-11-22T18:02:09;29.23;;;6.07;;
11761;SDS011;5938;47.098;15.474;2023-11-22T18:06:12;28.77;;;5.77;;
11761;SDS011;5938;47.098;15.474;2023-11-22T18:10:17;28.53;;;5.33;;
11761;SDS011;5938;47.098;15.474;2023-11-22T18:14:21;29.30;;;5.40;;
11761;SDS011;5938;47.098;15.474;2023-11-22T18:18:26;30.17;;;5.60;;
11761;SDS011;5938;47.098;15.474;2023-11-22T18:22:31;30.03;;;5.83;;
11761;SDS011;5938;47.098;15.474;2023-11-22T18:26:35;30.60;;;6.90;;
11761;SDS011;5938;47.098;15.474;2023-11-22T18:30:39;30.03;;;5.80;;
11761;SDS011;5938;47.098;15.474;2023-11-22T18:34:44;32.80;;;6.30;;
11761;SDS011;5938;47.098;15.474;2023-11-22T18:38:48;32.37;;;6.40;;
11761;SDS011;5938;47.098;15.474;2023-11-22T18:42:53;31.30;;;6.27;;
11761;SDS011;5938;47.098;15.474;2023-11-22T18:46:57;28.20;;;5.20;;
11761;SDS011;5938;47.098;15.474;2023-11-22T18:51:03;31.13;;;6.70;;
11761;SDS011;5938;47.098;15.474;2023-11-22T18:55:07;30.50;;;6.07;;
11761;SDS011;5938;47.098;15.474;2023-11-22T18:59:13;30.10;;;5.40;;
11761;SDS011;5938;47.098;15.474;2023-11-22T19:03:17;33.87;;;7.03;;
11761;SDS011;5938;47.098;15.474;2023-11-22T19:07:22;32.73;;;6.03;;
11761;SDS011;5938;47.098;15.474;2023-11-22T19:11:26;30.83;;;5.87;;
11761;SDS011;5938;47.098;15.474;2023-11-22T19:15:40;30.43;;;6.70;;
11761;SDS011;5938;47.098;15.474;2023-11-22T19:19:45;31.60;;;6.17;;
11761;SDS011;5938;47.098;15.474;2023-11-22T19:23:50;31.37;;;6.70;;
11761;SDS011;5938;47.098;15.474;2023-11-22T19:27:56;32.70;;;6.10;;
11761;SDS011;5938;47.098;15.474;2023-11-22T19:32:01;32.00;;;5.73;;
11761;SDS011;5938;47.098;15.474;2023-11-22T19:36:05;30.77;;;6.87;;
11761;SDS011;5938;47.098;15.474;2023-11-22T19:40:11;31.87;;;6.83;;
11761;SDS011;5938;47.098;15.474;2023-11-22T19:44:15;31.20;;;7.57;;
11761;SDS011;5938;47.098;15.474;2023-11-22T19:48:21;31.97;;;8.70;;
11761;SDS011;5938;47.098;15.474;2023-11-22T19:52:26;35.73;;;8.90;;
11761;SDS011;5938;47.098;15.474;2023-11-22T19:56:33;33.87;;;9.13;;
11761;SDS011;5938;47.098;15.474;2023-11-22T20:00:37;37.33;;;9.97;;
11761;SDS011;5938;47.098;15.474;2023-11-22T20:04:46;32.10;;;8.77;;
11761;SDS011;5938;47.098;15.474;2023-11-22T20:08:52;33.07;;;8.57;;
11761;SDS011;5938;47.098;15.474;2023-11-22T20:13:01;37.07;;;12.97;;
11761;SDS011;5938;47.098;15.474;2023-11-22T20:17:05;36.60;;;11.80;;
11761;SDS011;5938;47.098;15.474;2023-11-22T20:21:12;39.93;;;12.20;;
11761;SDS011;5938;47.098;15.474;2023-11-22T20:25:17;38.23;;;10.40;;
11761;SDS011;5938;47.098;15.474;2023-11-22T20:29:23;39.80;;;11.90;;
11761;SDS011;5938;47.098;15.474;2023-11-22T20:33:27;37.17;;;11.80;;
11761;SDS011;5938;47.098;15.474;2023-11-22T20:37:31;35.20;;;9.33;;
11761;SDS011;5938;47.098;15.474;2023-11-22T20:41:37;38.07;;;11.50;;
11761;SDS011;5938;47.098;15.474;2023-11-22T20:45:41;38.10;;;11.67;;
11761;SDS011;5938;47.098;15.474;2023-11-22T20:49:45;32.90;;;9.20;;
11761;SDS011;5938;47.098;15.474;2023-11-22T20:53:49;36.63;;;9.40;;
11761;SDS011;5938;47.098;15.474;2023-11-22T20:57:54;33.97;;;7.87;;
11761;SDS011;5938;47.098;15.474;2023-11-22T21:02:04;49.13;;;11.73;;
11761;SDS011;5938;47.098;15.474;2023-11-22T21:06:10;44.53;;;10.07;;
11761;SDS011;5938;47.098;15.474;2023-11-22T21:10:19;41.53;;;10.60;;
11761;SDS011;5938;47.098;15.474;2023-11-22T21:14:22;42.10;;;10.50;;
11761;SDS011;5938;47.098;15.474;2023-11-22T21:18:27;40.53;;;11.13;;
11761;SDS011;5938;47.098;15.474;2023-11-22T21:22:32;35.57;;;9.13;;
11761;SDS011;5938;47.098;15.474;2023-11-22T21:26:36;50.07;;;10.43;;
11761;SDS011;5938;47.098;15.474;2023-11-22T21:30:39;40.13;;;12.37;;
11761;SDS011;5938;47.098;15.474;2023-11-22T21:34:44;40.97;;;11.43;;
11761;SDS011;5938;47.098;15.474;2023-11-22T21:38:48;41.70;;;12.60;;
11761;SDS011;5938;47.098;15.474;2023-11-22T21:42:52;39.30;;;11.13;;
11761;SDS011;5938;47.098;15.474;2023-11-22T21:46:55;40.53;;;12.10;;
11761;SDS011;5938;47.098;15.474;2023-11-22T21:51:00;44.03;;;14.70;;
11761;SDS011;5938;47.098;15.474;2023-11-22T21:55:04;36.30;;;12.40;;
11761;SDS011;5938;47.098;15.474;2023-11-22T21:59:10;41.20;;;14.13;;
11761;SDS011;5938;47.098;15.474;2023-11-22T22:03:14;40.73;;;14.80;;
11761;SDS011;5938;47.098;15.474;2023-11-22T22:07:19;39.60;;;13.50;;
11761;SDS011;5938;47.098;15.474;2023-11-22T22:11:22;38.90;;;12.23;;
11761;SDS011;5938;47.098;15.474;2023-11-22T22:15:26;39.53;;;12.33;;
11761;SDS011;5938;47.098;15.474;2023-11-22T22:19:29;33.80;;;9.93;;
11761;SDS011;5938;47.098;15.474;2023-11-22T22:23:34;45.63;;;16.03;;
11761;SDS011;5938;47.098;15.474;2023-11-22T22:27:37;52.47;;;19.30;;
11761;SDS011;5938;47.098;15.474;2023-11-22T22:31:41;43.43;;;15.63;;
11761;SDS011;5938;47.098;15.474;2023-11-22T22:35:44;46.77;;;14.20;;
11761;SDS011;5938;47.098;15.474;2023-11-22T22:39:50;57.40;;;17.47;;
11761;SDS011;5938;47.098;15.474;2023-11-22T22:43:53;47.67;;;16.60;;
11761;SDS011;5938;47.098;15.474;2023-11-22T22:47:57;47.57;;;17.93;;
11761;SDS011;5938;47.098;15.474;2023-11-22T22:52:00;43.20;;;15.67;;
11761;SDS011;5938;47.098;15.474;2023-11-22T22:56:16;55.60;;;20.50;;
11761;SDS011;5938;47.098;15.474;2023-11-22T23:00:21;85.83;;;35.00;;
11761;SDS011;5938;47.098;15.474;2023-11-22T23:04:29;91.10;;;33.73;;
11761;SDS011;5938;47.098;15.474;2023-11-22T23:08:35;71.63;;;28.27;;
11761;SDS011;5938;47.098;15.474;2023-11-22T23:12:40;59.90;;;21.73;;
11761;SDS011;5938;47.098;15.474;2023-11-22T23:16:44;57.73;;;21.60;;
11761;SDS011;5938;47.098;15.474;2023-11-22T23:20:47;55.60;;;22.13;;
11761;SDS011;5938;47.098;15.474;2023-11-22T23:24:51;49.77;;;18.80;;
11761;SDS011;5938;47.098;15.474;2023-11-22T23:28:56;51.17;;;17.87;;
11761;SDS011;5938;47.098;15.474;2023-11-22T23:32:59;44.13;;;13.90;;
11761;SDS011;5938;47.098;15.474;2023-11-22T23:37:03;41.47;;;12.73;;
11761;SDS011;5938;47.098;15.474;2023-11-22T23:41:06;42.83;;;14.90;;
11761;SDS011;5938;47.098;15.474;2023-11-22T23:45:11;40.13;;;12.80;;
11761;SDS011;5938;47.098;15.474;2023-11-22T23:49:15;41.90;;;13.90;;
11761;SDS011;5938;47.098;15.474;2023-11-22T23:53:19;39.67;;;12.93;;
11761;SDS011;5938;47.098;15.474;2023-11-22T23:57:23;38.00;;;13.30;;
